sensor_id;sensor_type;location;lat;lon;timestamp;pressure;altitude;pressure_sealevel;temperature;humidity
13050;BME280;6591;51.446;5.404;2023-03-13T00:01:39;99977.38;;;16.88;51.16
13050;BME280;6591;51.446;5.404;2023-03-13T00:04:07;99973.09;;;16.85;51.25
13050;BME280;6591;51.446;5.404;2023-03-13T00:06:38;99969.72;;;16.83;51.45
13050;BME280;6591;51.446;5.404;2023-03-13T00:09:10;99958.44;;;16.80;51.14
13050;BME280;6591;51.446;5.404;2023-03-13T00:11:38;99952.06;;;16.81;51.48
13050;BME280;6591;51.446;5.404;2023-03-13T00:14:06;99938.81;;;16.79;51.61
13050;BME280;6591;51.446;5.404;2023-03-13T00:16:34;99950.50;;;16.78;51.72
13050;BME280;6591;51.446;5.404;2023-03-13T00:19:05;99938.94;;;16.78;51.71
13050;BME280;6591;51.446;5.404;2023-03-13T00:21:34;99933.69;;;16.76;51.86
13050;BME280;6591;51.446;5.404;2023-03-13T00:24:03;99921.25;;;16.75;51.79
13050;BME280;6591;51.446;5.404;2023-03-13T00:26:30;99920.56;;;16.73;51.76
13050;BME280;6591;51.446;5.404;2023-03-13T00:28:58;99911.66;;;16.73;52.08
13050;BME280;6591;51.446;5.404;2023-03-13T00:31:29;99909.09;;;16.71;52.20
13050;BME280;6591;51.446;5.404;2023-03-13T00:34:00;99900.59;;;16.66;52.07
13050;BME280;6591;51.446;5.404;2023-03-13T00:36:31;99911.09;;;16.69;52.50
13050;BME280;6591;51.446;5.404;2023-03-13T00:39:03;99895.13;;;16.68;52.43
13050;BME280;6591;51.446;5.404;2023-03-13T00:41:34;99883.53;;;16.67;52.45
13050;BME280;6591;51.446;5.404;2023-03-13T00:44:03;99878.19;;;16.67;52.64
13050;BME280;6591;51.446;5.404;2023-03-13T00:46:31;99877.47;;;16.65;53.26
13050;BME280;6591;51.446;5.404;2023-03-13T00:48:58;99864.78;;;16.67;52.86
13050;BME280;6591;51.446;5.404;2023-03-13T00:51:26;99862.94;;;16.68;52.84
13050;BME280;6591;51.446;5.404;2023-03-13T00:53:58;99852.34;;;16.66;53.12
13050;BME280;6591;51.446;5.404;2023-03-13T00:56:29;99854.91;;;16.68;52.77
13050;BME280;6591;51.446;5.404;2023-03-13T00:58:59;99847.84;;;16.67;52.75
13050;BME280;6591;51.446;5.404;2023-03-13T01:01:38;99844.31;;;16.66;52.89
13050;BME280;6591;51.446;5.404;2023-03-13T01:04:09;99833.47;;;16.68;53.19
13050;BME280;6591;51.446;5.404;2023-03-13T01:06:40;99832.63;;;16.67;53.38
13050;BME280;6591;51.446;5.404;2023-03-13T01:09:13;99826.97;;;16.70;53.35
13050;BME280;6591;51.446;5.404;2023-03-13T01:11:43;99817.94;;;16.71;53.54
13050;BME280;6591;51.446;5.404;2023-03-13T01:14:16;99813.44;;;16.72;53.73
13050;BME280;6591;51.446;5.404;2023-03-13T01:16:45;99813.88;;;16.77;53.60
13050;BME280;6591;51.446;5.404;2023-03-13T01:19:15;99805.00;;;16.76;53.72
13050;BME280;6591;51.446;5.404;2023-03-13T01:21:45;99803.03;;;16.78;53.91
13050;BME280;6591;51.446;5.404;2023-03-13T01:24:12;99789.50;;;16.80;53.96
13050;BME280;6591;51.446;5.404;2023-03-13T01:26:40;99790.06;;;16.83;54.26
13050;BME280;6591;51.446;5.404;2023-03-13T01:29:07;99781.75;;;16.86;54.29
13050;BME280;6591;51.446;5.404;2023-03-13T01:31:35;99768.34;;;16.86;54.25
13050;BME280;6591;51.446;5.404;2023-03-13T01:34:06;99764.56;;;16.89;54.43
13050;BME280;6591;51.446;5.404;2023-03-13T01:36:36;99759.75;;;16.92;54.45
13050;BME280;6591;51.446;5.404;2023-03-13T01:39:04;99762.03;;;16.97;54.68
13050;BME280;6591;51.446;5.404;2023-03-13T01:41:35;99760.06;;;16.99;54.51
13050;BME280;6591;51.446;5.404;2023-03-13T01:44:03;99762.47;;;17.02;54.77
13050;BME280;6591;51.446;5.404;2023-03-13T01:46:33;99752.31;;;17.06;54.98
13050;BME280;6591;51.446;5.404;2023-03-13T01:49:27;99752.31;;;17.06;55.13
13050;BME280;6591;51.446;5.404;2023-03-13T01:52:32;99757.28;;;17.10;54.92
13050;BME280;6591;51.446;5.404;2023-03-13T01:55:14;99749.66;;;17.15;55.15
13050;BME280;6591;51.446;5.404;2023-03-13T01:57:51;99737.66;;;17.19;55.23
13050;BME280;6591;51.446;5.404;2023-03-13T02:00:26;99729.19;;;17.24;55.23
13050;BME280;6591;51.446;5.404;2023-03-13T02:03:03;99713.66;;;17.27;55.36
13050;BME280;6591;51.446;5.404;2023-03-13T02:05:34;99718.47;;;17.33;55.62
13050;BME280;6591;51.446;5.404;2023-03-13T02:08:13;99702.22;;;17.35;55.53
13050;BME280;6591;51.446;5.404;2023-03-13T02:10:53;99685.81;;;17.38;55.56
13050;BME280;6591;51.446;5.404;2023-03-13T02:13:22;99686.25;;;17.43;55.92
13050;BME280;6591;51.446;5.404;2023-03-13T02:15:49;99678.78;;;17.47;55.47
13050;BME280;6591;51.446;5.404;2023-03-13T02:18:18;99666.91;;;17.49;55.58
13050;BME280;6591;51.446;5.404;2023-03-13T02:20:48;99648.81;;;17.51;55.48
13050;BME280;6591;51.446;5.404;2023-03-13T02:23:30;99649.53;;;17.53;55.87
13050;BME280;6591;51.446;5.404;2023-03-13T02:26:00;99624.94;;;17.58;55.93
13050;BME280;6591;51.446;5.404;2023-03-13T02:28:35;99632.88;;;17.59;55.91
13050;BME280;6591;51.446;5.404;2023-03-13T02:31:09;99624.38;;;17.64;56.32
13050;BME280;6591;51.446;5.404;2023-03-13T02:33:40;99637.66;;;17.65;56.19
13050;BME280;6591;51.446;5.404;2023-03-13T02:36:13;99641.06;;;17.67;56.03
13050;BME280;6591;51.446;5.404;2023-03-13T02:38:54;99643.75;;;17.67;55.97
13050;BME280;6591;51.446;5.404;2023-03-13T02:41:24;99638.94;;;17.71;56.12
13050;BME280;6591;51.446;5.404;2023-03-13T02:43:55;99628.91;;;17.73;56.23
13050;BME280;6591;51.446;5.404;2023-03-13T02:46:22;99626.75;;;17.76;56.17
13050;BME280;6591;51.446;5.404;2023-03-13T02:48:55;99622.09;;;17.78;56.07
13050;BME280;6591;51.446;5.404;2023-03-13T02:51:41;99613.34;;;17.76;56.30
13050;BME280;6591;51.446;5.404;2023-03-13T02:54:17;99604.00;;;17.81;56.40
13050;BME280;6591;51.446;5.404;2023-03-13T02:56:49;99625.19;;;17.84;56.20
13050;BME280;6591;51.446;5.404;2023-03-13T02:59:17;99616.69;;;17.88;56.32
13050;BME280;6591;51.446;5.404;2023-03-13T03:01:46;99608.34;;;17.91;56.29
13050;BME280;6591;51.446;5.404;2023-03-13T03:04:13;99625.84;;;17.95;56.41
13050;BME280;6591;51.446;5.404;2023-03-13T03:06:40;99629.09;;;17.99;56.26
13050;BME280;6591;51.446;5.404;2023-03-13T03:09:07;99628.81;;;18.02;56.39
13050;BME280;6591;51.446;5.404;2023-03-13T03:11:36;99613.25;;;18.05;56.45
13050;BME280;6591;51.446;5.404;2023-03-13T03:14:10;99620.28;;;18.06;56.35
13050;BME280;6591;51.446;5.404;2023-03-13T03:16:42;99620.03;;;18.09;56.28
13050;BME280;6591;51.446;5.404;2023-03-13T03:19:10;99622.41;;;18.12;56.43
13050;BME280;6591;51.446;5.404;2023-03-13T03:21:38;99620.97;;;18.18;56.60
13050;BME280;6591;51.446;5.404;2023-03-13T03:24:06;99619.97;;;18.19;56.37
13050;BME280;6591;51.446;5.404;2023-03-13T03:26:33;99608.06;;;18.21;56.61
13050;BME280;6591;51.446;5.404;2023-03-13T03:29:03;99616.69;;;18.25;56.62
13050;BME280;6591;51.446;5.404;2023-03-13T03:31:33;99619.06;;;18.28;56.58
13050;BME280;6591;51.446;5.404;2023-03-13T03:34:00;99599.28;;;18.29;56.59
13050;BME280;6591;51.446;5.404;2023-03-13T03:36:28;99608.91;;;18.32;56.46
13050;BME280;6591;51.446;5.404;2023-03-13T03:38:55;99604.06;;;18.35;56.53
13050;BME280;6591;51.446;5.404;2023-03-13T03:41:25;99596.84;;;18.36;56.64
13050;BME280;6591;51.446;5.404;2023-03-13T03:43:53;99609.97;;;18.39;56.59
13050;BME280;6591;51.446;5.404;2023-03-13T03:46:24;99603.47;;;18.41;56.58
13050;BME280;6591;51.446;5.404;2023-03-13T03:48:55;99608.84;;;18.41;56.63
13050;BME280;6591;51.446;5.404;2023-03-13T03:51:23;99604.84;;;18.45;56.58
13050;BME280;6591;51.446;5.404;2023-03-13T03:53:52;99603.00;;;18.46;56.71
13050;BME280;6591;51.446;5.404;2023-03-13T03:56:20;99614.28;;;18.49;56.84
13050;BME280;6591;51.446;5.404;2023-03-13T03:58:53;99602.41;;;18.52;57.03
13050;BME280;6591;51.446;5.404;2023-03-13T04:01:36;99601.28;;;18.54;56.72
13050;BME280;6591;51.446;5.404;2023-03-13T04:04:06;99592.09;;;18.57;56.95
13050;BME280;6591;51.446;5.404;2023-03-13T04:06:34;99597.13;;;18.60;56.66
13050;BME280;6591;51.446;5.404;2023-03-13T04:09:03;99592.28;;;18.63;56.75
13050;BME280;6591;51.446;5.404;2023-03-13T04:11:31;99574.03;;;18.67;56.92
13050;BME280;6591;51.446;5.404;2023-03-13T04:13:59;99572.88;;;18.70;56.92
13050;BME280;6591;51.446;5.404;2023-03-13T04:16:26;99580.66;;;18.73;56.72
13050;BME280;6591;51.446;5.404;2023-03-13T04:18:54;99587.41;;;18.77;56.87
13050;BME280;6591;51.446;5.404;2023-03-13T04:21:24;99587.09;;;18.80;56.88
13050;BME280;6591;51.446;5.404;2023-03-13T04:23:59;99562.41;;;18.84;56.66
13050;BME280;6591;51.446;5.404;2023-03-13T04:26:27;99568.34;;;18.88;56.78
13050;BME280;6591;51.446;5.404;2023-03-13T04:28:57;99561.81;;;18.90;56.83
13050;BME280;6591;51.446;5.404;2023-03-13T04:31:38;99550.44;;;18.96;56.76
13050;BME280;6591;51.446;5.404;2023-03-13T04:34:20;99550.81;;;19.01;56.68
13050;BME280;6591;51.446;5.404;2023-03-13T04:37:04;99543.28;;;19.05;56.85
13050;BME280;6591;51.446;5.404;2023-03-13T04:39:39;99539.94;;;19.11;56.93
13050;BME280;6591;51.446;5.404;2023-03-13T04:42:31;99523.66;;;19.13;56.55
13050;BME280;6591;51.446;5.404;2023-03-13T04:45:17;99514.44;;;19.15;56.75
13050;BME280;6591;51.446;5.404;2023-03-13T04:48:18;99528.56;;;19.17;56.59
13050;BME280;6591;51.446;5.404;2023-03-13T04:51:05;99519.16;;;19.21;56.53
13050;BME280;6591;51.446;5.404;2023-03-13T04:53:55;99527.81;;;19.25;56.75
13050;BME280;6591;51.446;5.404;2023-03-13T04:56:46;99522.09;;;19.28;56.32
13050;BME280;6591;51.446;5.404;2023-03-13T04:59:38;99516.56;;;19.29;56.62
13050;BME280;6591;51.446;5.404;2023-03-13T05:02:35;99530.53;;;19.33;56.47
13050;BME280;6591;51.446;5.404;2023-03-13T05:05:15;99514.94;;;19.36;56.45
13050;BME280;6591;51.446;5.404;2023-03-13T05:08:20;99514.59;;;19.39;56.37
13050;BME280;6591;51.446;5.404;2023-03-13T05:11:10;99508.88;;;19.42;55.99
13050;BME280;6591;51.446;5.404;2023-03-13T05:13:56;99513.41;;;19.42;56.33
13050;BME280;6591;51.446;5.404;2023-03-13T05:16:46;99505.06;;;19.45;56.35
13050;BME280;6591;51.446;5.404;2023-03-13T05:19:43;99500.34;;;19.47;56.18
13050;BME280;6591;51.446;5.404;2023-03-13T05:22:33;99502.59;;;19.52;56.26
13050;BME280;6591;51.446;5.404;2023-03-13T05:25:28;99486.13;;;19.55;56.05
13050;BME280;6591;51.446;5.404;2023-03-13T05:28:07;99496.56;;;19.58;56.15
13050;BME280;6591;51.446;5.404;2023-03-13T05:30:51;99482.94;;;19.59;55.91
13050;BME280;6591;51.446;5.404;2023-03-13T05:33:37;99482.63;;;19.62;56.05
13050;BME280;6591;51.446;5.404;2023-03-13T05:36:31;99483.13;;;19.66;55.71
13050;BME280;6591;51.446;5.404;2023-03-13T05:39:28;99484.00;;;19.66;55.71
13050;BME280;6591;51.446;5.404;2023-03-13T05:42:11;99479.44;;;19.67;55.44
13050;BME280;6591;51.446;5.404;2023-03-13T05:44:51;99483.50;;;19.71;55.42
13050;BME280;6591;51.446;5.404;2023-03-13T05:47:38;99478.63;;;19.74;54.84
13050;BME280;6591;51.446;5.404;2023-03-13T05:50:26;99480.16;;;19.77;55.05
13050;BME280;6591;51.446;5.404;2023-03-13T05:53:19;99502.56;;;19.77;55.06
13050;BME280;6591;51.446;5.404;2023-03-13T05:56:13;99492.44;;;19.79;54.91
13050;BME280;6591;51.446;5.404;2023-03-13T05:58:48;99489.59;;;19.81;55.01
13050;BME280;6591;51.446;5.404;2023-03-13T06:01:35;99484.91;;;19.83;54.89
13050;BME280;6591;51.446;5.404;2023-03-13T06:04:12;99487.41;;;19.84;54.61
13050;BME280;6591;51.446;5.404;2023-03-13T06:06:40;99490.81;;;19.86;54.22
13050;BME280;6591;51.446;5.404;2023-03-13T06:09:08;99482.56;;;19.88;54.32
13050;BME280;6591;51.446;5.404;2023-03-13T06:11:37;99491.50;;;19.88;54.30
13050;BME280;6591;51.446;5.404;2023-03-13T06:14:05;99491.31;;;19.90;54.31
13050;BME280;6591;51.446;5.404;2023-03-13T06:16:40;99489.31;;;19.92;54.33
13050;BME280;6591;51.446;5.404;2023-03-13T06:19:18;99495.56;;;19.93;54.34
13050;BME280;6591;51.446;5.404;2023-03-13T06:21:45;99476.50;;;19.94;54.13
13050;BME280;6591;51.446;5.404;2023-03-13T06:24:13;99454.78;;;19.96;53.90
13050;BME280;6591;51.446;5.404;2023-03-13T06:26:43;99481.59;;;19.97;54.13
13050;BME280;6591;51.446;5.404;2023-03-13T06:29:10;99481.44;;;19.99;53.67
13050;BME280;6591;51.446;5.404;2023-03-13T06:31:38;99466.94;;;20.00;53.71
13050;BME280;6591;51.446;5.404;2023-03-13T06:34:05;99478.56;;;20.00;53.69
13050;BME280;6591;51.446;5.404;2023-03-13T06:36:32;99468.47;;;20.02;53.84
13050;BME280;6591;51.446;5.404;2023-03-13T06:39:00;99461.06;;;20.04;53.95
13050;BME280;6591;51.446;5.404;2023-03-13T06:41:27;99475.22;;;20.06;53.62
13050;BME280;6591;51.446;5.404;2023-03-13T06:43:54;99480.59;;;20.06;53.72
13050;BME280;6591;51.446;5.404;2023-03-13T06:46:23;99475.72;;;20.10;53.64
13050;BME280;6591;51.446;5.404;2023-03-13T06:48:52;99479.94;;;20.12;53.79
13050;BME280;6591;51.446;5.404;2023-03-13T06:51:21;99477.09;;;20.14;53.60
13050;BME280;6591;51.446;5.404;2023-03-13T06:53:49;99476.75;;;20.17;53.68
13050;BME280;6591;51.446;5.404;2023-03-13T06:56:18;99463.97;;;20.19;53.28
13050;BME280;6591;51.446;5.404;2023-03-13T06:58:49;99478.28;;;20.19;53.38
13050;BME280;6591;51.446;5.404;2023-03-13T07:01:16;99471.56;;;20.23;53.29
13050;BME280;6591;51.446;5.404;2023-03-13T07:03:46;99473.06;;;20.26;53.10
13050;BME280;6591;51.446;5.404;2023-03-13T07:06:15;99476.44;;;20.28;53.27
13050;BME280;6591;51.446;5.404;2023-03-13T07:08:43;99475.28;;;20.30;53.04
13050;BME280;6591;51.446;5.404;2023-03-13T07:11:13;99478.53;;;20.34;53.21
13050;BME280;6591;51.446;5.404;2023-03-13T07:13:41;99468.41;;;20.36;53.20
13050;BME280;6591;51.446;5.404;2023-03-13T07:16:11;99473.47;;;20.39;52.82
13050;BME280;6591;51.446;5.404;2023-03-13T07:18:40;99467.94;;;20.41;52.81
13050;BME280;6591;51.446;5.404;2023-03-13T07:21:11;99462.88;;;20.46;52.95
13050;BME280;6591;51.446;5.404;2023-03-13T07:23:39;99463.53;;;20.48;52.77
13050;BME280;6591;51.446;5.404;2023-03-13T07:26:12;99456.97;;;20.50;52.65
13050;BME280;6591;51.446;5.404;2023-03-13T07:28:40;99463.72;;;20.54;52.95
13050;BME280;6591;51.446;5.404;2023-03-13T07:31:17;99457.47;;;20.54;52.37
13050;BME280;6591;51.446;5.404;2023-03-13T07:33:46;99461.53;;;20.58;52.64
13050;BME280;6591;51.446;5.404;2023-03-13T07:36:14;99469.28;;;20.61;52.40
13050;BME280;6591;51.446;5.404;2023-03-13T07:38:46;99469.94;;;20.63;52.25
13050;BME280;6591;51.446;5.404;2023-03-13T07:41:14;99464.25;;;20.66;52.75
13050;BME280;6591;51.446;5.404;2023-03-13T07:43:45;99465.94;;;20.67;52.34
13050;BME280;6591;51.446;5.404;2023-03-13T07:46:16;99459.19;;;20.71;52.24
13050;BME280;6591;51.446;5.404;2023-03-13T07:48:47;99459.19;;;20.71;52.06
13050;BME280;6591;51.446;5.404;2023-03-13T07:51:17;99465.41;;;20.71;52.26
13050;BME280;6591;51.446;5.404;2023-03-13T07:53:49;99476.22;;;20.71;52.03
13050;BME280;6591;51.446;5.404;2023-03-13T07:56:20;99467.44;;;20.69;52.01
13050;BME280;6591;51.446;5.404;2023-03-13T07:58:50;99464.56;;;20.71;51.82
13050;BME280;6591;51.446;5.404;2023-03-13T08:01:26;99470.28;;;20.68;52.03
13050;BME280;6591;51.446;5.404;2023-03-13T08:03:56;99464.56;;;20.71;52.32
13050;BME280;6591;51.446;5.404;2023-03-13T08:06:33;99453.44;;;20.74;51.77
13050;BME280;6591;51.446;5.404;2023-03-13T08:09:03;99448.38;;;20.79;51.91
13050;BME280;6591;51.446;5.404;2023-03-13T08:11:31;99432.50;;;20.84;52.37
13050;BME280;6591;51.446;5.404;2023-03-13T08:13:58;99442.63;;;20.90;52.22
13050;BME280;6591;51.446;5.404;2023-03-13T08:16:31;99438.25;;;20.97;51.81
13050;BME280;6591;51.446;5.404;2023-03-13T08:19:02;99429.28;;;21.05;51.67
13050;BME280;6591;51.446;5.404;2023-03-13T08:21:36;99445.66;;;21.11;51.78
13050;BME280;6591;51.446;5.404;2023-03-13T08:24:06;99423.41;;;21.18;51.78
13050;BME280;6591;51.446;5.404;2023-03-13T08:26:37;99422.72;;;21.24;51.63
13050;BME280;6591;51.446;5.404;2023-03-13T08:29:11;99424.03;;;21.28;51.52
13050;BME280;6591;51.446;5.404;2023-03-13T08:31:48;99418.97;;;21.33;51.58
13050;BME280;6591;51.446;5.404;2023-03-13T08:34:18;99421.31;;;21.44;51.61
13050;BME280;6591;51.446;5.404;2023-03-13T08:36:45;99425.47;;;21.54;51.76
13050;BME280;6591;51.446;5.404;2023-03-13T08:39:19;99440.47;;;21.65;51.25
13050;BME280;6591;51.446;5.404;2023-03-13T08:41:46;99427.22;;;21.78;51.12
13050;BME280;6591;51.446;5.404;2023-03-13T08:44:17;99440.72;;;21.86;50.53
13050;BME280;6591;51.446;5.404;2023-03-13T08:46:46;99422.09;;;21.91;50.36
13050;BME280;6591;51.446;5.404;2023-03-13T08:49:14;99425.44;;;21.93;50.02
13050;BME280;6591;51.446;5.404;2023-03-13T08:51:43;99418.06;;;21.95;50.21
13050;BME280;6591;51.446;5.404;2023-03-13T08:54:10;99426.84;;;21.98;50.54
13050;BME280;6591;51.446;5.404;2023-03-13T08:56:38;99431.88;;;22.01;49.72
13050;BME280;6591;51.446;5.404;2023-03-13T08:59:07;99418.00;;;22.04;49.87
13050;BME280;6591;51.446;5.404;2023-03-13T09:01:35;99426.78;;;22.06;50.09
13050;BME280;6591;51.446;5.404;2023-03-13T09:04:04;99413.25;;;22.06;49.66
13050;BME280;6591;51.446;5.404;2023-03-13T09:06:37;99423.72;;;22.09;49.72
13050;BME280;6591;51.446;5.404;2023-03-13T09:09:06;99410.88;;;22.11;50.16
13050;BME280;6591;51.446;5.404;2023-03-13T09:11:37;99405.75;;;22.16;49.82
13050;BME280;6591;51.446;5.404;2023-03-13T09:14:06;99402.34;;;22.22;49.70
13050;BME280;6591;51.446;5.404;2023-03-13T09:16:34;99414.47;;;22.26;49.91
13050;BME280;6591;51.446;5.404;2023-03-13T09:19:01;99407.22;;;22.26;49.28
13050;BME280;6591;51.446;5.404;2023-03-13T09:21:31;99406.38;;;22.26;49.10
13050;BME280;6591;51.446;5.404;2023-03-13T09:24:00;99394.69;;;22.25;49.35
13050;BME280;6591;51.446;5.404;2023-03-13T09:26:28;99387.81;;;22.23;49.27
13050;BME280;6591;51.446;5.404;2023-03-13T09:28:56;99395.25;;;22.21;49.29
13050;BME280;6591;51.446;5.404;2023-03-13T09:31:27;99382.25;;;22.16;48.83
13050;BME280;6591;51.446;5.404;2023-03-13T09:33:57;99378.25;;;22.12;49.05
13050;BME280;6591;51.446;5.404;2023-03-13T09:36:24;99364.22;;;22.09;48.90
13050;BME280;6591;51.446;5.404;2023-03-13T09:38:55;99373.38;;;22.08;49.32
13050;BME280;6591;51.446;5.404;2023-03-13T09:41:38;99349.22;;;22.06;49.36
13050;BME280;6591;51.446;5.404;2023-03-13T09:44:21;99357.63;;;22.11;49.31
13050;BME280;6591;51.446;5.404;2023-03-13T09:49:46;99335.19;;;22.25;48.94
13050;BME280;6591;51.446;5.404;2023-03-13T09:52:24;99345.25;;;22.39;48.96
13050;BME280;6591;51.446;5.404;2023-03-13T09:55:04;99339.19;;;22.52;48.65
13050;BME280;6591;51.446;5.404;2023-03-13T09:57:54;99339.97;;;22.61;48.51
13050;BME280;6591;51.446;5.404;2023-03-13T10:00:28;99345.13;;;22.70;47.61
13050;BME280;6591;51.446;5.404;2023-03-13T10:03:13;99345.44;;;22.75;47.69
13050;BME280;6591;51.446;5.404;2023-03-13T10:05:59;99356.84;;;22.86;47.75
13050;BME280;6591;51.446;5.404;2023-03-13T10:08:31;99339.09;;;22.98;47.27
13050;BME280;6591;51.446;5.404;2023-03-13T10:11:03;99342.69;;;23.13;47.50
13050;BME280;6591;51.446;5.404;2023-03-13T10:13:50;99293.25;;;23.26;47.12
13050;BME280;6591;51.446;5.404;2023-03-13T10:16:37;99348.63;;;23.38;46.77
13050;BME280;6591;51.446;5.404;2023-03-13T10:19:17;99346.81;;;23.45;45.80
13050;BME280;6591;51.446;5.404;2023-03-13T10:21:51;99336.88;;;23.45;45.98
13050;BME280;6591;51.446;5.404;2023-03-13T10:24:36;99333.97;;;23.47;45.99
13050;BME280;6591;51.446;5.404;2023-03-13T10:27:13;99339.50;;;23.53;46.22
13050;BME280;6591;51.446;5.404;2023-03-13T10:29:40;99309.94;;;23.58;45.63
13050;BME280;6591;51.446;5.404;2023-03-13T10:32:13;99315.63;;;23.63;46.41
13050;BME280;6591;51.446;5.404;2023-03-13T10:34:59;99324.69;;;23.71;45.61
13050;BME280;6591;51.446;5.404;2023-03-13T10:37:31;99315.13;;;23.75;45.89
13050;BME280;6591;51.446;5.404;2023-03-13T10:40:27;99307.63;;;23.77;45.41
13050;BME280;6591;51.446;5.404;2023-03-13T10:43:05;99303.78;;;23.86;45.49
13050;BME280;6591;51.446;5.404;2023-03-13T10:45:36;99289.84;;;23.89;45.39
13050;BME280;6591;51.446;5.404;2023-03-13T10:48:14;99299.66;;;23.90;45.21
13050;BME280;6591;51.446;5.404;2023-03-13T10:50:47;99291.97;;;23.93;44.99
13050;BME280;6591;51.446;5.404;2023-03-13T10:53:25;99280.75;;;23.96;45.53
13050;BME280;6591;51.446;5.404;2023-03-13T10:58:50;99297.53;;;24.06;44.91
13050;BME280;6591;51.446;5.404;2023-03-13T11:01:40;99294.66;;;24.15;44.94
13050;BME280;6591;51.446;5.404;2023-03-13T11:04:34;99271.19;;;24.22;44.12
13050;BME280;6591;51.446;5.404;2023-03-13T11:07:28;99287.31;;;24.30;44.01
13050;BME280;6591;51.446;5.404;2023-03-13T11:12:49;99280.31;;;24.42;43.89
13050;BME280;6591;51.446;5.404;2023-03-13T11:15:41;99262.34;;;24.41;42.80
13050;BME280;6591;51.446;5.404;2023-03-13T11:20:45;99300.69;;;24.31;42.50
13050;BME280;6591;51.446;5.404;2023-03-13T11:26:25;99269.63;;;24.13;42.27
13050;BME280;6591;51.446;5.404;2023-03-13T11:31:59;99259.34;;;24.08;42.82
13050;BME280;6591;51.446;5.404;2023-03-13T11:34:42;99260.25;;;24.15;42.94
13050;BME280;6591;51.446;5.404;2023-03-13T11:37:15;99249.28;;;24.23;43.08
13050;BME280;6591;51.446;5.404;2023-03-13T11:41:11;99252.00;;;24.23;42.02
13050;BME280;6591;51.446;5.404;2023-03-13T11:52:19;99244.69;;;24.02;41.44
13050;BME280;6591;51.446;5.404;2023-03-13T11:55:06;99233.66;;;24.04;41.41
13050;BME280;6591;51.446;5.404;2023-03-13T12:00:28;99227.03;;;24.13;41.91
13050;BME280;6591;51.446;5.404;2023-03-13T12:03:16;99232.28;;;24.15;41.02
13050;BME280;6591;51.446;5.404;2023-03-13T12:05:58;99220.25;;;24.17;41.96
13050;BME280;6591;51.446;5.404;2023-03-13T12:08:41;99211.50;;;24.22;42.00
13050;BME280;6591;51.446;5.404;2023-03-13T12:11:19;99215.50;;;24.26;41.77
13050;BME280;6591;51.446;5.404;2023-03-13T12:14:20;99235.50;;;24.25;41.87
13050;BME280;6591;51.446;5.404;2023-03-13T12:16:54;99208.00;;;24.28;41.97
13050;BME280;6591;51.446;5.404;2023-03-13T12:19:39;99207.53;;;24.24;41.76
13050;BME280;6591;51.446;5.404;2023-03-13T12:22:19;99191.22;;;24.18;41.75
13050;BME280;6591;51.446;5.404;2023-03-13T12:25:05;99192.19;;;24.10;42.01
13050;BME280;6591;51.446;5.404;2023-03-13T12:27:44;99212.19;;;24.09;42.26
13050;BME280;6591;51.446;5.404;2023-03-13T12:30:35;99191.94;;;24.05;42.42
13050;BME280;6591;51.446;5.404;2023-03-13T12:33:25;99183.72;;;23.98;42.13
13050;BME280;6591;51.446;5.404;2023-03-13T12:39:27;99178.00;;;23.87;41.57
13050;BME280;6591;51.446;5.404;2023-03-13T12:44:33;99164.06;;;23.90;41.60
13050;BME280;6591;51.446;5.404;2023-03-13T12:47:32;99166.38;;;23.93;41.96
13050;BME280;6591;51.446;5.404;2023-03-13T13:01:51;99143.13;;;24.33;40.73
13050;BME280;6591;51.446;5.404;2023-03-13T13:04:24;99131.44;;;24.32;40.49
13050;BME280;6591;51.446;5.404;2023-03-13T13:12:47;99124.78;;;24.41;41.00
13050;BME280;6591;51.446;5.404;2023-03-13T13:15:31;99130.50;;;24.53;41.33
13050;BME280;6591;51.446;5.404;2023-03-13T13:18:29;99131.56;;;24.59;41.47
13050;BME280;6591;51.446;5.404;2023-03-13T13:23:41;99114.75;;;24.83;39.43
13050;BME280;6591;51.446;5.404;2023-03-13T13:37:25;99110.69;;;25.20;38.44
13050;BME280;6591;51.446;5.404;2023-03-13T13:43:03;99078.28;;;25.18;38.18
13050;BME280;6591;51.446;5.404;2023-03-13T13:45:35;99064.69;;;25.18;38.20
13050;BME280;6591;51.446;5.404;2023-03-13T13:48:28;99062.81;;;25.12;38.37
13050;BME280;6591;51.446;5.404;2023-03-13T13:53:59;99066.59;;;25.11;38.08
13050;BME280;6591;51.446;5.404;2023-03-13T13:59:06;99069.31;;;25.11;38.13
13050;BME280;6591;51.446;5.404;2023-03-13T14:01:43;99089.75;;;25.07;38.12
13050;BME280;6591;51.446;5.404;2023-03-13T14:04:26;99075.34;;;25.00;37.50
13050;BME280;6591;51.446;5.404;2023-03-13T14:06:58;99092.88;;;24.91;37.30
13050;BME280;6591;51.446;5.404;2023-03-13T14:15:20;99073.78;;;24.78;37.86
13050;BME280;6591;51.446;5.404;2023-03-13T14:17:54;99060.84;;;24.80;37.41
13050;BME280;6591;51.446;5.404;2023-03-13T14:20:37;99055.00;;;24.83;37.62
13050;BME280;6591;51.446;5.404;2023-03-13T14:23:09;99059.66;;;24.96;38.40
13050;BME280;6591;51.446;5.404;2023-03-13T14:25:43;99056.34;;;25.07;38.48
13050;BME280;6591;51.446;5.404;2023-03-13T14:28:28;99042.13;;;25.18;38.43
13050;BME280;6591;51.446;5.404;2023-03-13T14:30:57;99046.34;;;25.27;38.48
13050;BME280;6591;51.446;5.404;2023-03-13T14:33:25;99043.38;;;25.28;38.12
13050;BME280;6591;51.446;5.404;2023-03-13T14:35:53;99036.50;;;25.33;38.43
13050;BME280;6591;51.446;5.404;2023-03-13T14:38:27;99030.63;;;25.36;38.49
13050;BME280;6591;51.446;5.404;2023-03-13T14:40:59;99036.94;;;25.43;38.38
13050;BME280;6591;51.446;5.404;2023-03-13T14:43:40;99035.44;;;25.47;38.06
13050;BME280;6591;51.446;5.404;2023-03-13T14:48:46;99048.44;;;25.58;37.84
13050;BME280;6591;51.446;5.404;2023-03-13T14:51:26;99018.31;;;25.59;36.72
13050;BME280;6591;51.446;5.404;2023-03-13T14:54:00;99030.66;;;25.62;37.17
13050;BME280;6591;51.446;5.404;2023-03-13T14:56:39;99024.59;;;25.60;36.24
13050;BME280;6591;51.446;5.404;2023-03-13T14:59:17;99019.59;;;25.57;36.25
13050;BME280;6591;51.446;5.404;2023-03-13T15:02:18;99026.66;;;25.45;35.89
13050;BME280;6591;51.446;5.404;2023-03-13T15:04:51;99005.34;;;25.42;36.20
13050;BME280;6591;51.446;5.404;2023-03-13T15:07:19;98996.97;;;25.37;36.55
13050;BME280;6591;51.446;5.404;2023-03-13T15:09:49;98998.25;;;25.27;36.33
13050;BME280;6591;51.446;5.404;2023-03-13T15:12:20;98992.16;;;25.19;36.00
13050;BME280;6591;51.446;5.404;2023-03-13T15:14:51;98976.69;;;25.13;36.38